createdAt,value
2019-05-09T00:01:04.624Z,7.73
2019-05-09T00:06:01.735Z,8.77
2019-05-09T00:10:58.648Z,8.33
2019-05-09T00:15:55.650Z,8.77
2019-05-09T00:20:57.672Z,7.37
2019-05-09T00:25:54.596Z,8.60
2019-05-09T00:30:56.541Z,8.97
2019-05-09T00:35:53.492Z,7.20
2019-05-09T00:40:57.860Z,6.63
2019-05-09T00:46:00.064Z,8.63
2019-05-09T00:50:57.003Z,7.63
2019-05-09T00:55:53.957Z,7.20
2019-05-09T01:00:53.171Z,7.87
2019-05-09T01:05:49.923Z,7.80
2019-05-09T01:10:48.223Z,7.30
2019-05-09T01:15:45.216Z,7.20
2019-05-09T01:20:44.064Z,8.13
2019-05-09T01:25:41.042Z,7.50
2019-05-09T01:30:38.050Z,6.87
2019-05-09T01:35:35.034Z,8.07
2019-05-09T01:40:33.192Z,7.20
2019-05-09T01:45:30.344Z,7.63
2019-05-09T01:50:27.281Z,7.43
2019-05-09T01:55:45.114Z,7.20
2019-05-09T02:00:43.590Z,8.33
2019-05-09T02:05:43.316Z,7.57
2019-05-09T02:10:39.944Z,7.40
2019-05-09T02:15:38.001Z,7.37
2019-05-09T02:20:34.925Z,7.80
2019-05-09T02:25:33.538Z,8.07
2019-05-09T02:30:30.722Z,7.50
2019-05-09T02:35:31.489Z,7.33
2019-05-09T02:40:28.537Z,8.20
2019-05-09T02:45:28.407Z,7.37
2019-05-09T02:50:28.384Z,7.83
2019-05-09T02:55:24.580Z,7.70
2019-05-09T03:00:29.147Z,7.80
2019-05-09T03:05:29.426Z,7.30
2019-05-09T03:10:24.996Z,8.07
2019-05-09T03:15:21.973Z,10.03
2019-05-09T03:20:39.230Z,7.50
2019-05-09T03:25:36.524Z,7.83
2019-05-09T03:30:39.803Z,7.60
2019-05-09T03:35:37.854Z,8.53
2019-05-09T03:40:37.753Z,7.73
2019-05-09T03:45:39.718Z,7.83
2019-05-09T03:50:38.277Z,8.23
2019-05-09T03:55:38.374Z,7.87
2019-05-09T04:00:37.452Z,8.70
2019-05-09T04:05:34.010Z,8.17
2019-05-09T04:10:30.974Z,7.77
2019-05-09T04:15:28.267Z,7.60
2019-05-09T04:20:27.578Z,7.57
2019-05-09T04:25:27.328Z,7.17
2019-05-09T04:30:24.531Z,8.27
2019-05-09T04:35:21.610Z,6.67
2019-05-09T04:40:18.658Z,6.80
2019-05-09T04:45:33.096Z,5.57
2019-05-09T04:50:29.941Z,5.40
2019-05-09T04:55:28.876Z,5.10
2019-05-09T05:00:27.648Z,6.83
2019-05-09T05:05:24.619Z,5.13
2019-05-09T05:10:21.586Z,6.47
2019-05-09T05:15:20.469Z,5.90
2019-05-09T05:20:19.192Z,6.00
2019-05-09T05:25:18.495Z,5.83
2019-05-09T05:30:17.836Z,4.23
2019-05-09T05:35:14.393Z,4.00
2019-05-09T05:40:11.655Z,4.40
2019-05-09T05:45:10.911Z,4.20
2019-05-09T05:50:08.514Z,4.33
2019-05-09T05:55:07.649Z,4.30
2019-05-09T06:00:07.830Z,4.60
2019-05-09T06:05:08.450Z,3.43
2019-05-09T06:10:08.071Z,3.17
2019-05-09T06:15:08.918Z,3.00
2019-05-09T06:20:08.953Z,2.63
2019-05-09T06:25:10.254Z,2.53
2019-05-09T06:30:10.203Z,3.37
2019-05-09T06:35:08.364Z,2.93
2019-05-09T06:40:08.215Z,2.53
2019-05-09T06:45:07.818Z,2.07
2019-05-09T06:50:08.928Z,3.97
2019-05-09T06:55:08.474Z,2.27
2019-05-09T07:00:08.398Z,2.47
2019-05-09T07:05:22.300Z,2.57
2019-05-09T07:10:19.316Z,2.30
2019-05-09T07:15:17.733Z,2.80
2019-05-09T07:20:18.315Z,2.50
2019-05-09T07:25:21.875Z,2.47
2019-05-09T07:30:31.491Z,2.20
2019-05-09T07:35:28.808Z,2.50
2019-05-09T07:40:30.242Z,2.20
2019-05-09T07:45:24.800Z,1.90
2019-05-09T07:50:21.923Z,2.17
2019-05-09T07:55:22.747Z,1.80
2019-05-09T08:00:35.221Z,2.13
2019-05-09T08:05:35.168Z,3.37
2019-05-09T08:10:38.488Z,2.20
2019-05-09T08:15:33.010Z,2.40
2019-05-09T08:20:32.005Z,2.17
2019-05-09T08:25:30.939Z,2.70
2019-05-09T08:30:37.429Z,1.27
2019-05-09T08:40:37.920Z,3.77
2019-05-09T08:45:31.642Z,3.53
2019-05-09T08:50:38.925Z,1.77
2019-05-09T08:55:40.171Z,3.93
2019-05-09T09:00:34.759Z,2.33
2019-05-09T09:05:34.730Z,2.30
2019-05-09T09:10:31.743Z,1.87
2019-05-09T09:16:05.134Z,3.23
2019-05-09T09:20:41.887Z,3.03
2019-05-09T09:35:43.383Z,1.93
2019-05-09T09:40:38.607Z,2.53
2019-05-09T09:45:38.035Z,2.20
2019-05-09T09:50:35.311Z,3.20
2019-05-09T09:55:40.997Z,2.27
2019-05-09T10:00:43.515Z,1.60
2019-05-09T10:05:40.603Z,2.50
2019-05-09T10:10:43.411Z,2.97
2019-05-09T10:15:49.173Z,1.63
2019-05-09T10:20:45.496Z,2.73
2019-05-09T10:25:44.443Z,2.50
2019-05-09T10:30:45.238Z,3.77
2019-05-09T10:35:47.763Z,2.53
2019-05-09T10:40:48.285Z,2.00
2019-05-09T10:46:04.698Z,2.90
2019-05-09T10:51:05.443Z,3.80
2019-05-09T10:56:08.645Z,3.43
2019-05-09T11:01:19.307Z,5.77
2019-05-09T11:06:24.516Z,2.20
2019-05-09T11:11:28.494Z,4.60
2019-05-09T11:16:41.289Z,3.93
2019-05-09T11:21:29.078Z,3.33
2019-05-09T11:26:28.599Z,2.77
2019-05-09T11:31:25.629Z,6.13
2019-05-09T11:36:24.569Z,3.43
2019-05-09T11:41:21.809Z,1.30
2019-05-09T11:46:20.199Z,2.43
2019-05-09T11:51:19.198Z,3.77
2019-05-09T11:56:18.328Z,1.63
2019-05-09T12:01:19.072Z,3.40
2019-05-09T12:06:19.624Z,3.07
2019-05-09T12:11:21.683Z,1.97
2019-05-09T12:16:21.833Z,2.30
2019-05-09T12:21:19.516Z,2.33
2019-05-09T12:26:18.516Z,3.23
2019-05-09T12:31:28.649Z,5.57
2019-05-09T12:36:23.389Z,3.43
2019-05-09T12:41:20.520Z,1.60
2019-05-09T12:46:17.781Z,1.10
2019-05-09T12:51:18.363Z,2.07
2019-05-09T12:56:18.875Z,2.43
2019-05-09T13:01:18.768Z,3.10
2019-05-09T13:06:20.178Z,4.00
2019-05-09T13:11:20.209Z,3.47
2019-05-09T13:16:44.069Z,2.17
2019-05-09T13:21:34.337Z,8.67
2019-05-09T13:26:33.721Z,9.90
2019-05-09T13:31:39.893Z,2.80
2019-05-09T13:36:39.372Z,3.53
2019-05-09T13:41:39.283Z,3.00
2019-05-09T13:46:38.762Z,3.67
2019-05-09T13:51:47.190Z,2.33
2019-05-09T13:56:37.527Z,2.37
2019-05-09T14:01:37.613Z,2.23
2019-05-09T14:06:34.391Z,2.70
2019-05-09T14:11:31.940Z,4.33
2019-05-09T14:16:29.268Z,3.40
2019-05-09T14:21:26.332Z,3.80
2019-05-09T14:26:24.094Z,3.67
2019-05-09T14:31:21.259Z,2.77
2019-05-09T14:36:18.247Z,2.90
2019-05-09T14:41:15.777Z,3.00
2019-05-09T14:46:12.853Z,2.53
2019-05-09T14:51:09.896Z,3.30
2019-05-09T14:56:08.784Z,4.80
2019-05-09T15:01:08.384Z,4.43
2019-05-09T15:06:04.682Z,4.53
2019-05-09T15:11:03.608Z,5.43
2019-05-09T15:16:00.604Z,6.03
2019-05-09T15:20:58.187Z,3.80
2019-05-09T15:25:57.962Z,3.97
2019-05-09T15:30:54.430Z,4.57
2019-05-09T15:35:51.476Z,3.37
2019-05-09T15:40:48.501Z,5.20
2019-05-09T15:45:49.032Z,6.90
2019-05-09T15:50:47.686Z,5.53
2019-05-09T15:55:44.824Z,5.20
2019-05-09T16:00:41.755Z,11.60
2019-05-09T16:05:39.558Z,12.83
2019-05-09T16:10:37.389Z,4.83
2019-05-09T16:15:34.828Z,5.10
2019-05-09T16:20:37.763Z,5.47
2019-05-09T16:25:31.382Z,17.00
2019-05-09T16:30:28.450Z,18.93
2019-05-09T16:35:25.504Z,11.77
2019-05-09T16:40:22.444Z,11.37
2019-05-09T16:45:19.447Z,19.07
2019-05-09T16:50:18.089Z,30.27
2019-05-09T16:55:32.118Z,26.77
2019-05-09T17:00:34.593Z,28.97
2019-05-09T17:05:31.889Z,24.13
2019-05-09T17:10:29.031Z,24.77
2019-05-09T17:15:26.333Z,21.77
2019-05-09T17:20:31.422Z,13.23
2019-05-09T17:25:28.454Z,12.43
2019-05-09T17:30:28.465Z,13.80
2019-05-09T17:35:24.552Z,18.10
2019-05-09T17:40:21.625Z,11.63
2019-05-09T17:45:18.770Z,7.73
2019-05-09T17:50:18.463Z,6.63
2019-05-09T17:55:15.040Z,5.73
2019-05-09T18:00:13.542Z,6.13
2019-05-09T18:05:10.647Z,7.27
2019-05-09T18:10:07.926Z,8.03
2019-05-09T18:15:08.726Z,7.87
2019-05-09T18:20:08.071Z,10.70
2019-05-09T18:25:08.225Z,10.10
2019-05-09T18:30:06.118Z,11.50
2019-05-09T18:35:08.108Z,10.53
2019-05-09T18:40:05.352Z,10.73
2019-05-09T18:45:03.914Z,9.50
2019-05-09T18:50:01.228Z,9.90
2019-05-09T18:54:59.577Z,9.87
2019-05-09T18:59:56.983Z,9.50
2019-05-09T19:04:54.018Z,8.50
2019-05-09T19:09:50.968Z,8.13
2019-05-09T19:14:48.322Z,8.33
2019-05-09T19:20:04.205Z,9.53
2019-05-09T19:25:02.907Z,9.57
2019-05-09T19:29:59.968Z,19.57
2019-05-09T19:34:56.891Z,15.83
2019-05-09T19:39:53.898Z,22.70
2019-05-09T19:44:50.832Z,16.53
2019-05-09T19:49:47.921Z,15.10
2019-05-09T19:54:44.936Z,15.60
2019-05-09T19:59:43.095Z,12.50
2019-05-09T20:04:40.136Z,12.17
2019-05-09T20:09:41.818Z,8.40
2019-05-09T20:14:40.857Z,10.57
2019-05-09T20:19:38.233Z,8.27
2019-05-09T20:24:35.544Z,9.30
2019-05-09T20:29:32.762Z,9.73
2019-05-09T20:34:29.895Z,9.60
2019-05-09T20:39:26.996Z,5.97
2019-05-09T20:44:24.070Z,6.20
2019-05-09T20:49:21.194Z,7.00
2019-05-09T20:54:21.120Z,6.37
2019-05-09T20:59:17.241Z,5.23
2019-05-09T21:04:14.322Z,6.50
2019-05-09T21:09:11.401Z,5.57
2019-05-09T21:14:08.460Z,7.07
2019-05-09T21:19:05.864Z,6.47
2019-05-09T21:24:02.838Z,6.67
2019-05-09T21:28:59.892Z,6.40
2019-05-09T21:33:56.843Z,7.43
2019-05-09T21:38:54.229Z,7.40
2019-05-09T21:43:51.166Z,6.27
2019-05-09T21:48:48.132Z,6.27
2019-05-09T21:53:45.162Z,8.20
2019-05-09T21:58:42.622Z,7.00
2019-05-09T22:03:39.677Z,6.17
2019-05-09T22:08:36.741Z,6.40
2019-05-09T22:13:33.756Z,7.47
2019-05-09T22:18:30.814Z,8.73
2019-05-09T22:23:27.803Z,9.40
2019-05-09T22:28:24.887Z,7.73
2019-05-09T22:33:21.826Z,7.73
2019-05-09T22:38:18.883Z,5.43
2019-05-09T22:43:15.835Z,6.10
2019-05-09T22:48:12.812Z,5.60
2019-05-09T22:53:09.761Z,6.57
2019-05-09T22:58:07.015Z,5.27
2019-05-09T23:03:04.123Z,6.40
2019-05-09T23:08:01.111Z,5.90
2019-05-09T23:12:58.175Z,6.83
2019-05-09T23:17:55.172Z,5.30
2019-05-09T23:22:52.094Z,6.73
2019-05-09T23:27:49.063Z,6.57
2019-05-09T23:32:46.509Z,7.33
2019-05-09T23:37:44.340Z,5.30
2019-05-09T23:42:41.262Z,4.70
2019-05-09T23:47:38.273Z,5.10
2019-05-09T23:52:35.190Z,5.13
2019-05-09T23:57:50.905Z,5.77
